CST,Max TemperatureF,Mean TemperatureF,Min TemperatureF,Max Dew PointF,MeanDew PointF,Min DewpointF,Max Humidity, Mean Humidity, Min Humidity, Max Sea Level PressureIn, Mean Sea Level PressureIn, Min Sea Level PressureIn, Max VisibilityMiles, Mean VisibilityMiles, Min VisibilityMiles, Max Wind SpeedMPH, Mean Wind SpeedMPH, Max Gust SpeedMPH,PrecipitationIn, CloudCover, Events, WindDirDegrees
2013-1-1,22,13,3,7,2,-2,83,62,41,30.35,30.28,30.23,10,10,9,15,6,17,0.00,0,,329
2013-1-2,37,23,9,24,15,4,80,64,48,30.23,30.13,30.05,10,10,9,17,10,22,0.00,4,,232
2013-1-3,31,21,11,25,16,7,85,68,50,30.41,30.30,30.17,10,10,9,22,10,28,0.00,5,,290
2013-1-4,42,27,12,23,17,7,84,62,39,30.35,30.27,30.21,10,10,10,22,11,25,0.00,0,,229
2013-1-5,41,33,24,31,25,19,88,77,65,30.20,30.08,29.98,10,10,10,24,13,31,0.00,4,,227
2013-1-6,33,25,17,19,13,8,80,61,42,30.33,30.25,30.08,10,9,6,24,11,31,0.00,2,,280
2013-1-7,49,35,21,25,21,16,81,58,34,30.28,30.14,30.03,10,10,10,26,13,31,0.00,0,,195
2013-1-8,48,38,27,30,27,23,78,62,46,30.08,30.02,29.93,10,10,9,21,12,29,0.00,0,,191
2013-1-9,50,39,28,31,28,24,85,64,42,30.46,30.35,30.11,10,10,10,17,8,21,0.00,0,,261
2013-1-10,43,36,30,39,33,24,100,88,47,30.41,30.03,29.73,10,4,0,22,10,25,0.13,5,Fog-Rain,120
2013-1-11,55,47,39,47,43,39,100,83,66,29.73,29.65,29.54,10,4,0,25,14,30,0.00,4,Fog,183
2013-1-12,54,38,19,43,20,9,82,68,56,30.11,29.95,29.62,10,10,8,24,16,36,0.00,5,,298
2013-1-13,20,15,10,10,6,3,76,64,51,30.37,30.18,30.02,10,10,10,22,11,25,0.00,3,,299
2013-1-14,28,17,6,10,6,1,85,66,40,30.53,30.45,30.36,10,10,10,9,4,,0.00,0,,257
2013-1-15,32,22,11,14,9,7,84,60,36,30.44,30.32,30.14,10,10,8,13,6,15,0.00,1,,187
2013-1-16,45,30,14,31,21,8,82,65,48,30.17,30.00,29.88,10,10,8,21,11,24,0.00,4,,248
2013-1-17,35,27,18,26,16,10,89,64,39,30.47,30.39,30.22,10,10,10,20,8,24,0.00,1,,314
2013-1-18,55,39,23,29,26,17,78,57,35,30.40,30.10,29.93,10,10,10,31,17,40,0.00,0,,207
2013-1-19,56,38,20,31,27,11,68,52,35,30.25,29.96,29.84,10,10,10,31,17,40,0.00,1,,265
2013-1-20,20,14,7,10,6,2,84,69,54,30.43,30.37,30.27,10,7,1,25,12,30,T,5,Snow,321
2013-1-21,9,5,1,2,-5,-10,80,69,57,30.48,30.41,30.36,10,10,10,25,13,32,0.00,1,,293
2013-1-22,15,6,-3,3,-2,-7,79,65,51,30.50,30.43,30.37,10,10,10,12,5,15,0.00,5,,279
2013-1-23,31,20,8,16,7,-3,76,65,53,30.53,30.31,30.20,10,10,10,29,14,37,0.00,1,,273
2013-1-24,22,13,4,6,-2,-7,68,52,35,30.66,30.50,30.27,10,10,10,21,11,24,0.00,1,,98
2013-1-25,41,27,13,21,12,4,74,57,40,30.32,30.17,30.09,10,10,8,21,12,28,0.00,3,,269
2013-1-26,34,20,6,14,7,1,80,58,35,30.42,30.33,30.23,10,10,10,15,8,20,0.00,1,,109
2013-1-27,43,36,29,41,30,14,100,75,49,30.22,29.95,29.77,10,3,0,22,13,25,0.24,8,Fog-Rain,149
2013-1-28,55,45,35,52,42,35,100,96,92,29.94,29.81,29.65,9,2,0,17,8,21,0.01,8,Fog-Rain-Thunderstorm,141
2013-1-29,61,47,33,55,43,31,96,91,86,29.64,29.58,29.52,10,6,2,35,12,45,0.93,7,Rain-Thunderstorm,291
2013-1-30,33,25,16,31,21,9,92,80,67,29.87,29.59,29.40,10,3,0,32,20,39,0.21,8,Fog-Rain-Snow,323
2013-1-31,20,11,1,10,0,-8,76,72,67,30.41,30.12,29.84,10,6,0,26,16,33,T,6,Snow,299